sensor_id;sensor_type;location;lat;lon;timestamp;pressure;altitude;pressure_sealevel;temperature;humidity
68399;BME280;56258;52.196;13.868;2023-02-13T00:00:18;103304.88;;;20.24;34.12
68399;BME280;56258;52.196;13.868;2023-02-13T00:02:45;103303.28;;;20.22;34.31
68399;BME280;56258;52.196;13.868;2023-02-13T00:05:12;103309.81;;;20.19;34.21
68399;BME280;56258;52.196;13.868;2023-02-13T00:07:39;103309.81;;;20.19;34.34
68399;BME280;56258;52.196;13.868;2023-02-13T00:10:06;103311.78;;;20.17;34.46
68399;BME280;56258;52.196;13.868;2023-02-13T00:12:33;103305.50;;;20.17;33.99
68399;BME280;56258;52.196;13.868;2023-02-13T00:15:00;103297.28;;;20.18;34.12
68399;BME280;56258;52.196;13.868;2023-02-13T00:17:27;103294.19;;;20.23;34.06
68399;BME280;56258;52.196;13.868;2023-02-13T00:19:53;103293.22;;;20.24;34.06
68399;BME280;56258;52.196;13.868;2023-02-13T00:22:20;103293.09;;;20.25;34.41
68399;BME280;56258;52.196;13.868;2023-02-13T00:24:46;103302.81;;;20.28;33.77
68399;BME280;56258;52.196;13.868;2023-02-13T00:27:13;103296.41;;;20.29;34.16
68399;BME280;56258;52.196;13.868;2023-02-13T00:29:40;103297.41;;;20.28;34.05
68399;BME280;56258;52.196;13.868;2023-02-13T00:32:06;103299.25;;;20.27;34.04
68399;BME280;56258;52.196;13.868;2023-02-13T00:34:33;103297.53;;;20.26;33.72
68399;BME280;56258;52.196;13.868;2023-02-13T00:37:00;103293.00;;;20.27;33.93
68399;BME280;56258;52.196;13.868;2023-02-13T00:39:27;103298.25;;;20.28;33.97
68399;BME280;56258;52.196;13.868;2023-02-13T00:41:53;103292.00;;;20.28;34.21
68399;BME280;56258;52.196;13.868;2023-02-13T00:44:20;103291.50;;;20.23;33.91
68399;BME280;56258;52.196;13.868;2023-02-13T00:46:46;103295.78;;;20.25;34.27
68399;BME280;56258;52.196;13.868;2023-02-13T00:49:13;103294.72;;;20.28;34.47
68399;BME280;56258;52.196;13.868;2023-02-13T00:51:40;103297.03;;;20.32;34.13
68399;BME280;56258;52.196;13.868;2023-02-13T00:54:06;103292.47;;;20.33;33.84
68399;BME280;56258;52.196;13.868;2023-02-13T00:56:33;103286.34;;;20.31;33.72
68399;BME280;56258;52.196;13.868;2023-02-13T00:59:00;103289.66;;;20.34;34.31
68399;BME280;56258;52.196;13.868;2023-02-13T01:01:26;103293.22;;;20.35;33.84
68399;BME280;56258;52.196;13.868;2023-02-13T01:03:53;103286.81;;;20.36;34.13
68399;BME280;56258;52.196;13.868;2023-02-13T01:06:20;103280.56;;;20.35;33.90
68399;BME280;56258;52.196;13.868;2023-02-13T01:08:47;103285.72;;;20.38;34.00
68399;BME280;56258;52.196;13.868;2023-02-13T01:11:13;103281.06;;;20.40;33.82
68399;BME280;56258;52.196;13.868;2023-02-13T01:13:40;103287.69;;;20.36;33.71
68399;BME280;56258;52.196;13.868;2023-02-13T01:16:06;103283.38;;;20.34;33.78
68399;BME280;56258;52.196;13.868;2023-02-13T01:18:33;103280.81;;;20.32;33.79
68399;BME280;56258;52.196;13.868;2023-02-13T01:21:02;103288.06;;;20.32;34.22
68399;BME280;56258;52.196;13.868;2023-02-13T01:23:33;103278.38;;;20.29;34.21
68399;BME280;56258;52.196;13.868;2023-02-13T01:26:03;103288.44;;;20.27;34.22
68399;BME280;56258;52.196;13.868;2023-02-13T01:28:30;103280.81;;;20.21;34.31
68399;BME280;56258;52.196;13.868;2023-02-13T01:30:57;103289.19;;;20.18;34.40
68399;BME280;56258;52.196;13.868;2023-02-13T01:33:26;103282.91;;;20.18;34.30
68399;BME280;56258;52.196;13.868;2023-02-13T01:35:53;103278.63;;;20.15;33.91
68399;BME280;56258;52.196;13.868;2023-02-13T01:38:20;103278.63;;;20.15;34.54
68399;BME280;56258;52.196;13.868;2023-02-13T01:40:49;103281.22;;;20.17;34.16
68399;BME280;56258;52.196;13.868;2023-02-13T01:43:16;103284.75;;;20.17;33.95
68399;BME280;56258;52.196;13.868;2023-02-13T01:45:46;103283.66;;;20.20;33.88
68399;BME280;56258;52.196;13.868;2023-02-13T01:48:31;103283.66;;;20.20;33.74
68399;BME280;56258;52.196;13.868;2023-02-13T01:51:02;103295.91;;;20.24;34.46
68399;BME280;56258;52.196;13.868;2023-02-13T01:53:47;103295.91;;;20.24;34.32
68399;BME280;56258;52.196;13.868;2023-02-13T01:56:36;103296.31;;;20.19;33.84
68399;BME280;56258;52.196;13.868;2023-02-13T01:59:09;103303.41;;;20.20;34.12
68399;BME280;56258;52.196;13.868;2023-02-13T02:01:38;103295.56;;;20.17;34.46
68399;BME280;56258;52.196;13.868;2023-02-13T02:04:10;103296.78;;;20.13;34.14
68399;BME280;56258;52.196;13.868;2023-02-13T02:06:42;103294.72;;;20.17;34.50
68399;BME280;56258;52.196;13.868;2023-02-13T02:09:13;103297.28;;;20.18;34.46
68399;BME280;56258;52.196;13.868;2023-02-13T02:14:12;103293.97;;;20.15;34.07
68399;BME280;56258;52.196;13.868;2023-02-13T02:16:39;103291.75;;;20.20;34.37
68399;BME280;56258;52.196;13.868;2023-02-13T02:19:13;103296.56;;;20.16;34.32
68399;BME280;56258;52.196;13.868;2023-02-13T02:21:56;103299.13;;;20.18;34.18
68399;BME280;56258;52.196;13.868;2023-02-13T02:36:11;103305.63;;;20.37;34.23
68399;BME280;56258;52.196;13.868;2023-02-13T02:39:05;103303.16;;;20.34;33.99
68399;BME280;56258;52.196;13.868;2023-02-13T02:44:30;103308.81;;;20.31;34.02
68399;BME280;56258;52.196;13.868;2023-02-13T02:47:08;103299.84;;;20.31;33.44
68399;BME280;56258;52.196;13.868;2023-02-13T02:50:23;103304.03;;;20.24;33.79
68399;BME280;56258;52.196;13.868;2023-02-13T02:53:14;103307.69;;;20.23;34.16
68399;BME280;56258;52.196;13.868;2023-02-13T02:55:53;103313.63;;;20.17;34.24
68399;BME280;56258;52.196;13.868;2023-02-13T02:58:27;103307.09;;;20.19;34.48
68399;BME280;56258;52.196;13.868;2023-02-13T03:01:17;103312.75;;;20.16;34.00
68399;BME280;56258;52.196;13.868;2023-02-13T03:04:05;103317.41;;;20.14;34.25
68399;BME280;56258;52.196;13.868;2023-02-13T03:07:00;103302.94;;;20.15;34.16
68399;BME280;56258;52.196;13.868;2023-02-13T03:09:31;103306.25;;;20.19;34.26
68399;BME280;56258;52.196;13.868;2023-02-13T03:12:22;103292.88;;;20.17;34.26
68399;BME280;56258;52.196;13.868;2023-02-13T03:15:08;103295.56;;;20.17;34.37
68399;BME280;56258;52.196;13.868;2023-02-13T03:17:35;103289.31;;;20.17;34.34
68399;BME280;56258;52.196;13.868;2023-02-13T03:20:22;103287.22;;;20.20;34.12
68399;BME280;56258;52.196;13.868;2023-02-13T03:28:38;103283.66;;;20.31;33.75
68399;BME280;56258;52.196;13.868;2023-02-13T03:34:20;103299.84;;;20.64;33.71
68399;BME280;56258;52.196;13.868;2023-02-13T03:37:02;103298.69;;;20.78;33.29
68399;BME280;56258;52.196;13.868;2023-02-13T03:40:12;103294.56;;;20.95;33.39
68399;BME280;56258;52.196;13.868;2023-02-13T03:42:46;103298.59;;;21.12;33.38
68399;BME280;56258;52.196;13.868;2023-02-13T03:45:18;103301.00;;;21.26;33.49
68399;BME280;56258;52.196;13.868;2023-02-13T03:48:06;103302.28;;;21.43;32.74
68399;BME280;56258;52.196;13.868;2023-02-13T03:50:58;103311.19;;;21.54;32.80
68399;BME280;56258;52.196;13.868;2023-02-13T03:53:27;103310.00;;;21.68;32.84
68399;BME280;56258;52.196;13.868;2023-02-13T03:55:56;103309.59;;;21.73;32.84
68399;BME280;56258;52.196;13.868;2023-02-13T03:58:47;103308.22;;;21.78;32.47
68399;BME280;56258;52.196;13.868;2023-02-13T04:01:34;103302.66;;;21.80;32.70
68399;BME280;56258;52.196;13.868;2023-02-13T04:04:24;103300.81;;;21.80;33.26
68399;BME280;56258;52.196;13.868;2023-02-13T04:07:02;103310.44;;;21.94;32.89
68399;BME280;56258;52.196;13.868;2023-02-13T04:09:31;103315.19;;;22.02;32.52
68399;BME280;56258;52.196;13.868;2023-02-13T04:12:15;103309.16;;;21.98;32.34
68399;BME280;56258;52.196;13.868;2023-02-13T04:17:22;103305.69;;;22.07;32.54
68399;BME280;56258;52.196;13.868;2023-02-13T04:19:52;103307.72;;;22.15;32.82
68399;BME280;56258;52.196;13.868;2023-02-13T04:22:19;103302.03;;;22.18;32.92
68399;BME280;56258;52.196;13.868;2023-02-13T04:24:45;103300.44;;;22.16;33.18
68399;BME280;56258;52.196;13.868;2023-02-13T04:27:14;103300.75;;;22.22;32.78
68399;BME280;56258;52.196;13.868;2023-02-13T04:29:42;103299.34;;;22.28;32.72
68399;BME280;56258;52.196;13.868;2023-02-13T04:32:11;103298.22;;;22.30;32.34
68399;BME280;56258;52.196;13.868;2023-02-13T04:34:39;103290.09;;;22.30;32.76
68399;BME280;56258;52.196;13.868;2023-02-13T04:37:06;103289.94;;;22.32;33.14
68399;BME280;56258;52.196;13.868;2023-02-13T04:39:33;103286.97;;;22.35;32.56
68399;BME280;56258;52.196;13.868;2023-02-13T04:42:00;103292.50;;;22.33;32.30
68399;BME280;56258;52.196;13.868;2023-02-13T04:44:26;103287.84;;;22.35;32.86
68399;BME280;56258;52.196;13.868;2023-02-13T04:46:53;103282.28;;;22.37;32.75
68399;BME280;56258;52.196;13.868;2023-02-13T04:49:20;103288.41;;;22.39;32.61
68399;BME280;56258;52.196;13.868;2023-02-13T04:51:46;103287.69;;;22.37;32.88
68399;BME280;56258;52.196;13.868;2023-02-13T04:54:13;103286.28;;;22.42;32.96
68399;BME280;56258;52.196;13.868;2023-02-13T04:56:40;103274.44;;;22.43;32.88
68399;BME280;56258;52.196;13.868;2023-02-13T04:59:06;103283.56;;;22.42;32.23
68399;BME280;56258;52.196;13.868;2023-02-13T05:01:33;103285.00;;;22.47;32.36
68399;BME280;56258;52.196;13.868;2023-02-13T05:04:00;103281.72;;;22.53;32.59
68399;BME280;56258;52.196;13.868;2023-02-13T05:06:26;103283.59;;;22.52;32.55
68399;BME280;56258;52.196;13.868;2023-02-13T05:08:53;103284.28;;;22.54;32.92
68399;BME280;56258;52.196;13.868;2023-02-13T05:11:20;103285.00;;;22.56;32.25
68399;BME280;56258;52.196;13.868;2023-02-13T05:13:46;103281.91;;;22.61;32.75
68399;BME280;56258;52.196;13.868;2023-02-13T05:16:13;103285.75;;;22.58;32.49
68399;BME280;56258;52.196;13.868;2023-02-13T05:18:39;103293.03;;;22.58;32.21
68399;BME280;56258;52.196;13.868;2023-02-13T05:21:06;103294.84;;;22.57;32.78
68399;BME280;56258;52.196;13.868;2023-02-13T05:23:51;103286.34;;;22.71;32.31
68399;BME280;56258;52.196;13.868;2023-02-13T05:26:18;103287.03;;;22.64;32.42
68399;BME280;56258;52.196;13.868;2023-02-13T05:28:44;103293.00;;;22.48;32.28
68399;BME280;56258;52.196;13.868;2023-02-13T05:31:30;103309.91;;;22.31;33.14
68399;BME280;56258;52.196;13.868;2023-02-13T05:33:57;103298.72;;;22.15;33.33
68399;BME280;56258;52.196;13.868;2023-02-13T05:36:23;103303.88;;;21.97;33.64
68399;BME280;56258;52.196;13.868;2023-02-13T05:38:50;103297.25;;;21.80;33.49
68399;BME280;56258;52.196;13.868;2023-02-13T05:41:16;103300.03;;;21.69;33.97
68399;BME280;56258;52.196;13.868;2023-02-13T05:43:43;103309.94;;;21.59;33.45
68399;BME280;56258;52.196;13.868;2023-02-13T05:46:10;103310.13;;;21.46;33.47
68399;BME280;56258;52.196;13.868;2023-02-13T05:48:37;103312.34;;;21.41;34.19
68399;BME280;56258;52.196;13.868;2023-02-13T05:51:03;103315.75;;;21.33;33.85
68399;BME280;56258;52.196;13.868;2023-02-13T05:53:30;103308.00;;;21.29;34.13
68399;BME280;56258;52.196;13.868;2023-02-13T05:56:01;103312.91;;;21.23;34.04
68399;BME280;56258;52.196;13.868;2023-02-13T05:58:28;103309.84;;;21.17;34.66
68399;BME280;56258;52.196;13.868;2023-02-13T06:00:57;103317.78;;;21.09;34.67
68399;BME280;56258;52.196;13.868;2023-02-13T06:03:26;103320.72;;;21.06;33.99
68399;BME280;56258;52.196;13.868;2023-02-13T06:05:54;103317.28;;;21.04;34.39
68399;BME280;56258;52.196;13.868;2023-02-13T06:08:21;103326.41;;;21.03;34.08
68399;BME280;56258;52.196;13.868;2023-02-13T06:10:49;103327.97;;;21.05;34.09
68399;BME280;56258;52.196;13.868;2023-02-13T06:13:16;103331.94;;;21.01;34.12
68399;BME280;56258;52.196;13.868;2023-02-13T06:15:43;103324.69;;;21.02;33.92
68399;BME280;56258;52.196;13.868;2023-02-13T06:18:09;103326.41;;;21.03;33.93
68399;BME280;56258;52.196;13.868;2023-02-13T06:20:37;103326.53;;;21.01;33.81
68399;BME280;56258;52.196;13.868;2023-02-13T06:23:04;103330.72;;;20.94;34.12
68399;BME280;56258;52.196;13.868;2023-02-13T06:25:30;103331.09;;;20.89;34.24
68399;BME280;56258;52.196;13.868;2023-02-13T06:27:57;103346.22;;;20.92;33.89
68399;BME280;56258;52.196;13.868;2023-02-13T06:30:23;103346.59;;;20.87;34.11
68399;BME280;56258;52.196;13.868;2023-02-13T06:32:50;103340.69;;;20.82;34.14
68399;BME280;56258;52.196;13.868;2023-02-13T06:35:17;103340.59;;;20.84;34.29
68399;BME280;56258;52.196;13.868;2023-02-13T06:37:44;103341.47;;;20.84;33.88
68399;BME280;56258;52.196;13.868;2023-02-13T06:40:12;103333.97;;;20.77;34.45
68399;BME280;56258;52.196;13.868;2023-02-13T06:42:41;103337.53;;;20.77;34.04
68399;BME280;56258;52.196;13.868;2023-02-13T06:45:09;103340.84;;;20.81;34.29
68399;BME280;56258;52.196;13.868;2023-02-13T06:47:40;103346.00;;;20.84;34.01
68399;BME280;56258;52.196;13.868;2023-02-13T06:50:07;103350.91;;;20.90;34.06
68399;BME280;56258;52.196;13.868;2023-02-13T06:52:34;103347.47;;;20.88;34.05
68399;BME280;56258;52.196;13.868;2023-02-13T06:55:01;103353.47;;;20.91;34.56
68399;BME280;56258;52.196;13.868;2023-02-13T06:57:28;103351.25;;;20.96;34.43
68399;BME280;56258;52.196;13.868;2023-02-13T06:59:59;103345.31;;;21.03;34.54
68399;BME280;56258;52.196;13.868;2023-02-13T07:02:26;103351.72;;;21.02;34.99
68399;BME280;56258;52.196;13.868;2023-02-13T07:04:53;103347.28;;;21.12;34.34
68399;BME280;56258;52.196;13.868;2023-02-13T07:07:19;103353.91;;;21.19;34.98
68399;BME280;56258;52.196;13.868;2023-02-13T07:09:46;103358.06;;;21.23;34.13
68399;BME280;56258;52.196;13.868;2023-02-13T07:12:12;103356.59;;;21.19;34.75
68399;BME280;56258;52.196;13.868;2023-02-13T07:14:39;103357.97;;;21.13;34.51
68399;BME280;56258;52.196;13.868;2023-02-13T07:17:06;103356.13;;;21.14;34.94
68399;BME280;56258;52.196;13.868;2023-02-13T07:19:32;103363.09;;;21.16;34.84
68399;BME280;56258;52.196;13.868;2023-02-13T07:21:59;103360.06;;;21.10;35.33
68399;BME280;56258;52.196;13.868;2023-02-13T07:24:26;103366.47;;;21.09;34.89
68399;BME280;56258;52.196;13.868;2023-02-13T07:26:52;103366.09;;;21.02;35.01
68399;BME280;56258;52.196;13.868;2023-02-13T07:29:19;103374.09;;;21.04;35.52
68399;BME280;56258;52.196;13.868;2023-02-13T07:31:46;103373.38;;;21.02;35.02
68399;BME280;56258;52.196;13.868;2023-02-13T07:34:12;103368.94;;;21.01;35.27
68399;BME280;56258;52.196;13.868;2023-02-13T07:36:39;103372.63;;;21.00;34.74
68399;BME280;56258;52.196;13.868;2023-02-13T07:39:05;103373.97;;;20.94;35.60
68399;BME280;56258;52.196;13.868;2023-02-13T07:41:32;103372.41;;;20.91;35.25
68399;BME280;56258;52.196;13.868;2023-02-13T07:43:59;103366.13;;;20.91;34.99
68399;BME280;56258;52.196;13.868;2023-02-13T07:46:25;103372.53;;;20.90;34.78
68399;BME280;56258;52.196;13.868;2023-02-13T07:48:52;103368.25;;;20.87;34.99
68399;BME280;56258;52.196;13.868;2023-02-13T07:51:19;103370.94;;;20.87;34.82
68399;BME280;56258;52.196;13.868;2023-02-13T07:53:46;103372.06;;;20.85;35.04
68399;BME280;56258;52.196;13.868;2023-02-13T07:56:12;103376.72;;;20.83;35.02
68399;BME280;56258;52.196;13.868;2023-02-13T07:58:39;103380.28;;;20.83;34.57
68399;BME280;56258;52.196;13.868;2023-02-13T08:01:10;103381.25;;;20.82;34.69
68399;BME280;56258;52.196;13.868;2023-02-13T08:03:38;103381.38;;;20.81;34.58
68399;BME280;56258;52.196;13.868;2023-02-13T08:06:05;103375.25;;;20.79;34.96
68399;BME280;56258;52.196;13.868;2023-02-13T08:08:32;103377.34;;;20.75;34.63
68399;BME280;56258;52.196;13.868;2023-02-13T08:11:05;103377.34;;;20.75;34.82
68399;BME280;56258;52.196;13.868;2023-02-13T08:13:50;103381.28;;;20.60;34.87
68399;BME280;56258;52.196;13.868;2023-02-13T08:16:17;103368.53;;;20.62;34.47
68399;BME280;56258;52.196;13.868;2023-02-13T08:18:44;103367.16;;;20.67;34.62
68399;BME280;56258;52.196;13.868;2023-02-13T08:21:10;103374.41;;;20.67;34.55
68399;BME280;56258;52.196;13.868;2023-02-13T08:23:37;103373.56;;;20.55;35.08
68399;BME280;56258;52.196;13.868;2023-02-13T08:26:04;103365.69;;;20.63;35.02
68399;BME280;56258;52.196;13.868;2023-02-13T08:28:30;103369.25;;;20.64;34.75
68399;BME280;56258;52.196;13.868;2023-02-13T08:30:57;103368.75;;;20.70;34.67
68399;BME280;56258;52.196;13.868;2023-02-13T08:33:24;103373.19;;;20.60;35.00
68399;BME280;56258;52.196;13.868;2023-02-13T08:35:50;103365.81;;;20.62;35.26
68399;BME280;56258;52.196;13.868;2023-02-13T08:38:17;103362.63;;;20.57;34.83
68399;BME280;56258;52.196;13.868;2023-02-13T08:40:44;103368.03;;;20.57;34.63
68399;BME280;56258;52.196;13.868;2023-02-13T08:43:10;103369.63;;;20.59;34.77
68399;BME280;56258;52.196;13.868;2023-02-13T08:45:37;103368.75;;;20.59;34.84
68399;BME280;56258;52.196;13.868;2023-02-13T08:48:03;103360.16;;;20.54;34.99
68399;BME280;56258;52.196;13.868;2023-02-13T08:50:30;103365.72;;;20.52;34.71
68399;BME280;56258;52.196;13.868;2023-02-13T08:52:57;103372.94;;;20.63;34.57
68399;BME280;56258;52.196;13.868;2023-02-13T08:55:26;103367.78;;;20.60;34.88
68399;BME280;56258;52.196;13.868;2023-02-13T08:57:52;103367.03;;;20.58;34.96
68399;BME280;56258;52.196;13.868;2023-02-13T09:00:19;103369.63;;;20.59;34.90
68399;BME280;56258;52.196;13.868;2023-02-13T09:02:46;103373.44;;;20.57;35.28
68399;BME280;56258;52.196;13.868;2023-02-13T09:05:13;103373.56;;;20.55;34.68
68399;BME280;56258;52.196;13.868;2023-02-13T09:07:39;103376.38;;;20.54;35.16
68399;BME280;56258;52.196;13.868;2023-02-13T09:10:06;103376.38;;;20.54;34.74
68399;BME280;56258;52.196;13.868;2023-02-13T09:12:33;103378.72;;;20.58;34.83
68399;BME280;56258;52.196;13.868;2023-02-13T09:15:00;103378.09;;;20.55;34.68
68399;BME280;56258;52.196;13.868;2023-02-13T09:17:26;103376.88;;;20.59;34.36
68399;BME280;56258;52.196;13.868;2023-02-13T09:19:53;103376.13;;;20.57;34.90
68399;BME280;56258;52.196;13.868;2023-02-13T09:22:19;103376.38;;;20.54;34.59
68399;BME280;56258;52.196;13.868;2023-02-13T09:24:46;103378.59;;;20.60;34.63
68399;BME280;56258;52.196;13.868;2023-02-13T09:27:13;103373.81;;;20.52;34.63
68399;BME280;56258;52.196;13.868;2023-02-13T09:29:39;103374.94;;;20.61;34.71
68399;BME280;56258;52.196;13.868;2023-02-13T09:32:06;103370.72;;;20.57;35.00
68399;BME280;56258;52.196;13.868;2023-02-13T09:34:33;103379.81;;;20.56;34.66
68399;BME280;56258;52.196;13.868;2023-02-13T09:36:59;103381.66;;;20.55;34.61
68399;BME280;56258;52.196;13.868;2023-02-13T09:39:26;103380.41;;;20.59;34.87
68399;BME280;56258;52.196;13.868;2023-02-13T09:41:53;103378.97;;;20.55;34.40
68399;BME280;56258;52.196;13.868;2023-02-13T09:44:29;103379.09;;;20.54;34.94
68399;BME280;56258;52.196;13.868;2023-02-13T09:49:44;103383.25;;;20.58;34.83
68399;BME280;56258;52.196;13.868;2023-02-13T09:52:12;103386.47;;;20.63;34.47
68399;BME280;56258;52.196;13.868;2023-02-13T09:54:38;103377.63;;;20.61;34.56
68399;BME280;56258;52.196;13.868;2023-02-13T09:57:14;103384.75;;;20.62;35.01
68399;BME280;56258;52.196;13.868;2023-02-13T10:05:59;103386.34;;;20.64;34.57
68399;BME280;56258;52.196;13.868;2023-02-13T10:08:36;103384.09;;;20.69;33.91
68399;BME280;56258;52.196;13.868;2023-02-13T10:14:15;103389.28;;;20.73;34.31
68399;BME280;56258;52.196;13.868;2023-02-13T10:19:54;103384.97;;;20.59;34.66
68399;BME280;56258;52.196;13.868;2023-02-13T10:25:27;103378.72;;;20.58;34.88
68399;BME280;56258;52.196;13.868;2023-02-13T10:28:04;103374.16;;;20.59;34.87
68399;BME280;56258;52.196;13.868;2023-02-13T10:30:42;103380.56;;;20.58;34.33
68399;BME280;56258;52.196;13.868;2023-02-13T10:33:27;103383.97;;;20.60;34.64
68399;BME280;56258;52.196;13.868;2023-02-13T10:36:24;103375.66;;;20.63;34.65
68399;BME280;56258;52.196;13.868;2023-02-13T10:39:26;103364.97;;;20.61;34.82
68399;BME280;56258;52.196;13.868;2023-02-13T10:41:54;103363.13;;;20.62;34.54
68399;BME280;56258;52.196;13.868;2023-02-13T10:45:00;103358.94;;;20.58;34.89
68399;BME280;56258;52.196;13.868;2023-02-13T10:47:54;103354.03;;;20.63;34.70
68399;BME280;56258;52.196;13.868;2023-02-13T10:56:24;103356.22;;;20.58;34.84
68399;BME280;56258;52.196;13.868;2023-02-13T10:59:26;103353.31;;;20.61;34.47
68399;BME280;56258;52.196;13.868;2023-02-13T11:02:06;103350.34;;;20.64;34.51
68399;BME280;56258;52.196;13.868;2023-02-13T11:04:36;103347.38;;;20.67;34.60
68399;BME280;56258;52.196;13.868;2023-02-13T11:07:04;103346.38;;;20.68;34.39
68399;BME280;56258;52.196;13.868;2023-02-13T11:09:39;103339.75;;;20.72;34.55
68399;BME280;56258;52.196;13.868;2023-02-13T11:12:28;103332.53;;;20.73;34.02
68399;BME280;56258;52.196;13.868;2023-02-13T11:14:59;103336.94;;;20.74;34.27
68399;BME280;56258;52.196;13.868;2023-02-13T11:17:29;103335.44;;;20.81;34.27
68399;BME280;56258;52.196;13.868;2023-02-13T11:19:59;103332.38;;;20.85;34.00
68399;BME280;56258;52.196;13.868;2023-02-13T11:22:38;103334.06;;;20.86;33.94
68399;BME280;56258;52.196;13.868;2023-02-13T11:27:44;103331.38;;;20.86;34.00
68399;BME280;56258;52.196;13.868;2023-02-13T11:30:29;103337.78;;;20.85;34.55
68399;BME280;56258;52.196;13.868;2023-02-13T11:33:02;103328.03;;;20.83;34.38
68399;BME280;56258;52.196;13.868;2023-02-13T11:35:30;103324.88;;;20.78;34.44
68399;BME280;56258;52.196;13.868;2023-02-13T11:40:36;103330.16;;;20.68;34.31
68399;BME280;56258;52.196;13.868;2023-02-13T11:43:07;103322.19;;;20.66;34.37
68399;BME280;56258;52.196;13.868;2023-02-13T11:45:41;103324.75;;;20.68;34.21
68399;BME280;56258;52.196;13.868;2023-02-13T11:48:08;103326.75;;;20.66;34.69
68399;BME280;56258;52.196;13.868;2023-02-13T11:50:50;103333.13;;;20.65;34.75
68399;BME280;56258;52.196;13.868;2023-02-13T11:53:21;103328.00;;;20.62;34.59
68399;BME280;56258;52.196;13.868;2023-02-13T11:56:15;103315.34;;;20.62;34.43
68399;BME280;56258;52.196;13.868;2023-02-13T11:58:43;103308.94;;;20.63;34.55
68399;BME280;56258;52.196;13.868;2023-02-13T12:01:23;103308.06;;;20.63;34.65
68399;BME280;56258;52.196;13.868;2023-02-13T12:04:04;103305.38;;;20.63;34.43
68399;BME280;56258;52.196;13.868;2023-02-13T12:06:32;103299.13;;;20.62;34.33
68399;BME280;56258;52.196;13.868;2023-02-13T12:09:12;103302.41;;;20.66;34.44
68399;BME280;56258;52.196;13.868;2023-02-13T12:11:56;103301.69;;;20.64;34.42
68399;BME280;56258;52.196;13.868;2023-02-13T12:14:26;103293.56;;;20.64;34.55
68399;BME280;56258;52.196;13.868;2023-02-13T12:17:04;103296.16;;;20.65;34.36
68399;BME280;56258;52.196;13.868;2023-02-13T12:19:40;103302.66;;;20.63;34.59
68399;BME280;56258;52.196;13.868;2023-02-13T12:37:56;103308.94;;;20.52;34.26
68399;BME280;56258;52.196;13.868;2023-02-13T12:45:34;103293.94;;;20.48;34.62
68399;BME280;56258;52.196;13.868;2023-02-13T13:02:52;103324.53;;;20.49;34.74
68399;BME280;56258;52.196;13.868;2023-02-13T13:05:13;103321.09;;;20.47;34.53
68399;BME280;56258;52.196;13.868;2023-02-13T13:10:57;103315.47;;;20.50;34.18
68399;BME280;56258;52.196;13.868;2023-02-13T13:20:02;103316.94;;;20.54;34.75
68399;BME280;56258;52.196;13.868;2023-02-13T13:22:41;103311.00;;;20.60;34.45
68399;BME280;56258;52.196;13.868;2023-02-13T13:25:34;103317.91;;;20.64;34.46
68399;BME280;56258;52.196;13.868;2023-02-13T13:28:57;103320.63;;;20.53;34.14
68399;BME280;56258;52.196;13.868;2023-02-13T13:31:16;103321.75;;;20.50;34.54
68399;BME280;56258;52.196;13.868;2023-02-13T13:33:45;103319.50;;;20.55;34.78
68399;BME280;56258;52.196;13.868;2023-02-13T13:46:33;103315.47;;;20.50;34.67
68399;BME280;56258;52.196;13.868;2023-02-13T13:52:17;103310.56;;;20.44;35.03
68399;BME280;56258;52.196;13.868;2023-02-13T13:54:45;103312.28;;;20.45;35.00
68399;BME280;56258;52.196;13.868;2023-02-13T13:57:18;103296.28;;;20.42;35.19
68399;BME280;56258;52.196;13.868;2023-02-13T14:05:02;103301.84;;;20.51;34.68
68399;BME280;56258;52.196;13.868;2023-02-13T14:07:37;103293.34;;;20.56;34.62
68399;BME280;56258;52.196;13.868;2023-02-13T14:10:04;103296.16;;;20.54;34.87
68399;BME280;56258;52.196;13.868;2023-02-13T14:14:59;103277.13;;;20.56;34.93
68399;BME280;56258;52.196;13.868;2023-02-13T14:20:20;103268.88;;;20.57;34.47
68399;BME280;56258;52.196;13.868;2023-02-13T14:22:48;103264.72;;;20.53;34.51
68399;BME280;56258;52.196;13.868;2023-02-13T14:25:23;103256.22;;;20.58;34.55
68399;BME280;56258;52.196;13.868;2023-02-13T14:27:59;103255.50;;;20.56;34.72
68399;BME280;56258;52.196;13.868;2023-02-13T14:30:33;103252.94;;;20.54;34.65
68399;BME280;56258;52.196;13.868;2023-02-13T14:33:29;103258.47;;;20.53;34.71
68399;BME280;56258;52.196;13.868;2023-02-13T14:36:20;103255.03;;;20.51;34.74
68399;BME280;56258;52.196;13.868;2023-02-13T14:38:56;103251.34;;;20.52;34.64
68399;BME280;56258;52.196;13.868;2023-02-13T14:47:13;103248.16;;;20.47;34.56
68399;BME280;56258;52.196;13.868;2023-02-13T14:49:44;103250.84;;;20.47;35.17
68399;BME280;56258;52.196;13.868;2023-02-13T14:52:17;103244.72;;;20.45;34.66
68399;BME280;56258;52.196;13.868;2023-02-13T14:54:48;103250.97;;;20.45;35.10
68399;BME280;56258;52.196;13.868;2023-02-13T14:57:21;103249.84;;;20.48;34.98
68399;BME280;56258;52.196;13.868;2023-02-13T15:00:00;103248.88;;;20.49;34.49
68399;BME280;56258;52.196;13.868;2023-02-13T15:02:40;103239.81;;;20.50;34.69
68399;BME280;56258;52.196;13.868;2023-02-13T15:05:16;103230.84;;;20.49;34.77
68399;BME280;56258;52.196;13.868;2023-02-13T15:07:48;103235.97;;;20.41;34.88
68399;BME280;56258;52.196;13.868;2023-02-13T15:12:59;103235.25;;;20.39;34.81
68399;BME280;56258;52.196;13.868;2023-02-13T15:15:30;103234.50;;;20.37;34.91
68399;BME280;56258;52.196;13.868;2023-02-13T15:18:06;103235.75;;;20.33;34.52